createdAt,value
2018-10-21T00:02:41.214Z,0.00
2018-10-21T00:03:40.123Z,0.00
2018-10-21T00:04:40.962Z,0.00
2018-10-21T00:05:39.995Z,0.00
2018-10-21T00:06:39.911Z,0.00
2018-10-21T00:07:39.913Z,0.00
2018-10-21T00:10:39.218Z,0.00
2018-10-21T00:11:54.744Z,0.00
2018-10-21T00:12:48.646Z,0.00
2018-10-21T00:13:39.723Z,0.00
2018-10-21T00:14:39.605Z,0.00
2018-10-21T00:16:54.253Z,0.00
2018-10-21T00:18:06.423Z,0.00
2018-10-21T00:18:54.288Z,0.00
2018-10-21T00:21:10.359Z,0.00
2018-10-21T00:22:10.716Z,0.00
2018-10-21T00:23:10.901Z,0.00
2018-10-21T00:24:36.544Z,0.00
2018-10-21T00:27:23.089Z,0.00
2018-10-21T00:28:06.449Z,0.00
2018-10-21T00:28:57.018Z,0.00
2018-10-21T00:31:14.875Z,0.00
2018-10-21T00:32:14.853Z,0.00
2018-10-21T00:33:14.797Z,0.00
2018-10-21T00:34:14.525Z,0.00
2018-10-21T00:35:14.524Z,0.00
2018-10-21T00:36:25.690Z,0.00
2018-10-21T00:37:14.670Z,0.00
2018-10-21T00:41:42.986Z,0.00
2018-10-21T00:42:43.679Z,0.00
2018-10-21T00:43:52.943Z,0.00
2018-10-21T00:44:53.624Z,0.00
2018-10-21T00:45:44.251Z,0.00
2018-10-21T00:46:54.791Z,0.00
2018-10-21T00:47:53.652Z,0.00
2018-10-21T00:48:42.934Z,0.00
2018-10-21T00:49:42.793Z,0.00
2018-10-21T00:50:43.572Z,0.00
2018-10-21T00:51:42.839Z,0.00
2018-10-21T00:52:42.461Z,0.00
2018-10-21T00:53:42.462Z,0.00
2018-10-21T00:56:08.804Z,0.00
2018-10-21T00:57:17.540Z,0.00
2018-10-21T01:03:38.538Z,0.00
2018-10-21T01:07:58.550Z,0.00
2018-10-21T01:09:10.574Z,0.00
2018-10-21T01:15:31.081Z,0.00
2018-10-21T01:18:35.690Z,0.00
2018-10-21T01:22:53.740Z,0.00
2018-10-21T01:23:34.054Z,0.00
2018-10-21T01:24:50.531Z,0.00
2018-10-21T01:27:22.072Z,0.00
2018-10-21T01:30:20.718Z,0.00
2018-10-21T01:31:33.190Z,0.00
2018-10-21T01:32:41.018Z,0.00
2018-10-21T01:33:22.240Z,0.00
2018-10-21T01:35:49.165Z,0.00
2018-10-21T01:36:53.867Z,0.00
2018-10-21T01:39:20.712Z,0.00
2018-10-21T01:42:10.461Z,0.00
2018-10-21T01:43:20.366Z,0.00
2018-10-21T01:44:10.874Z,0.00
2018-10-21T01:49:34.507Z,0.00
2018-10-21T01:52:17.548Z,0.00
2018-10-21T01:53:28.509Z,0.00
2018-10-21T01:57:54.363Z,0.00
2018-10-21T02:00:12.772Z,0.00
2018-10-21T02:03:43.050Z,0.00
2018-10-21T02:04:44.423Z,0.00
2018-10-21T02:06:27.387Z,0.00
2018-10-21T02:06:44.311Z,0.00
2018-10-21T02:08:00.178Z,0.00
2018-10-21T02:08:54.721Z,0.00
2018-10-21T02:13:11.650Z,0.00
2018-10-21T02:14:18.534Z,0.00
2018-10-21T02:15:20.183Z,0.00
2018-10-21T02:16:17.125Z,0.00
2018-10-21T02:17:09.061Z,0.00
2018-10-21T02:18:08.978Z,0.00
2018-10-21T02:19:07.499Z,0.00
2018-10-21T02:20:08.011Z,0.00
2018-10-21T02:21:08.679Z,0.00
2018-10-21T02:24:50.085Z,0.00
2018-10-21T02:27:10.235Z,0.00
2018-10-21T02:28:21.372Z,0.00
2018-10-21T02:29:10.139Z,0.00
2018-10-21T02:30:24.556Z,0.00
2018-10-21T02:31:10.103Z,0.00
2018-10-21T02:32:28.992Z,0.00
2018-10-21T02:33:25.549Z,0.00
2018-10-21T02:34:11.577Z,0.00
2018-10-21T02:35:24.043Z,0.00
2018-10-21T02:36:22.219Z,0.00
2018-10-21T02:37:10.050Z,0.00
2018-10-21T02:38:12.704Z,0.00
2018-10-21T02:39:20.670Z,0.00
2018-10-21T02:40:25.455Z,0.00
2018-10-21T02:41:10.733Z,0.00
2018-10-21T02:44:28.329Z,0.00
2018-10-21T02:46:46.067Z,0.00
2018-10-21T02:47:47.309Z,0.00
2018-10-21T02:48:46.072Z,0.00
2018-10-21T02:51:40.099Z,0.00
2018-10-21T02:57:02.786Z,0.00
2018-10-21T03:00:20.974Z,0.00
2018-10-21T03:02:34.250Z,0.00
2018-10-21T03:03:33.799Z,0.00
2018-10-21T03:04:34.156Z,0.00
2018-10-21T03:05:45.840Z,0.00
2018-10-21T03:06:33.908Z,0.00
2018-10-21T03:07:45.724Z,0.00
2018-10-21T03:08:34.140Z,0.00
2018-10-21T03:09:44.031Z,0.00
2018-10-21T03:10:55.415Z,0.00
2018-10-21T03:11:33.541Z,0.00
2018-10-21T03:12:43.690Z,0.00
2018-10-21T03:13:33.759Z,0.00
2018-10-21T03:14:51.089Z,0.00
2018-10-21T03:15:33.525Z,0.00
2018-10-21T03:16:33.784Z,0.00
2018-10-21T03:17:33.365Z,0.00
2018-10-21T03:18:33.523Z,0.00
2018-10-21T03:19:47.648Z,0.00
2018-10-21T03:20:33.473Z,0.00
2018-10-21T03:23:06.422Z,0.00
2018-10-21T03:26:11.223Z,0.00
2018-10-21T03:27:22.425Z,0.00
2018-10-21T03:29:28.635Z,0.00
2018-10-21T03:30:45.667Z,0.00
2018-10-21T03:33:12.384Z,0.00
2018-10-21T03:35:49.998Z,0.00
2018-10-21T03:37:51.037Z,0.00
2018-10-21T03:40:40.853Z,0.00
2018-10-21T03:44:56.522Z,0.00
2018-10-21T03:45:56.565Z,0.00
2018-10-21T03:49:01.569Z,0.00
2018-10-21T03:51:21.582Z,0.00
2018-10-21T03:52:37.872Z,0.00
2018-10-21T03:58:12.871Z,0.00
2018-10-21T04:03:44.581Z,0.00
2018-10-21T04:11:04.375Z,0.00
2018-10-21T04:13:09.569Z,0.00
2018-10-21T04:14:21.367Z,0.00
2018-10-21T04:17:12.622Z,0.00
2018-10-21T04:19:42.533Z,0.00
2018-10-21T04:24:09.460Z,0.00
2018-10-21T04:27:02.201Z,0.00
2018-10-21T04:27:58.162Z,0.00
2018-10-21T04:28:58.566Z,0.00
2018-10-21T04:29:58.331Z,0.00
2018-10-21T04:33:37.896Z,0.00
2018-10-21T04:37:21.864Z,0.00
2018-10-21T04:38:18.649Z,0.00
2018-10-21T04:42:10.387Z,0.00
2018-10-21T04:44:21.866Z,0.00
2018-10-21T04:47:25.285Z,0.00
2018-10-21T04:48:36.660Z,0.00
2018-10-21T04:49:25.151Z,0.00
2018-10-21T04:50:25.640Z,0.00
2018-10-21T04:53:31.761Z,0.00
2018-10-21T04:59:08.157Z,0.00
2018-10-21T04:59:59.692Z,0.00
2018-10-21T05:04:05.683Z,0.00
2018-10-21T05:07:02.445Z,0.00
2018-10-21T05:08:09.020Z,0.00
2018-10-21T05:12:52.507Z,0.00
2018-10-21T05:14:57.384Z,0.00
2018-10-21T05:15:57.324Z,0.00
2018-10-21T05:19:34.635Z,0.00
2018-10-21T05:20:23.720Z,0.00
2018-10-21T05:21:38.281Z,4.00
2018-10-21T05:23:40.605Z,4.00
2018-10-21T05:24:38.658Z,4.00
2018-10-21T05:25:52.692Z,4.00
2018-10-21T05:26:38.407Z,8.00
2018-10-21T05:27:39.469Z,8.00
2018-10-21T05:28:39.082Z,8.00
2018-10-21T05:29:39.392Z,12.00
2018-10-21T05:30:38.386Z,12.00
2018-10-21T05:31:38.335Z,12.00
2018-10-21T05:32:38.372Z,12.00
2018-10-21T05:33:38.316Z,12.00
2018-10-21T05:34:38.410Z,16.00
2018-10-21T05:35:38.482Z,20.00
2018-10-21T05:36:40.025Z,16.00
2018-10-21T05:37:38.225Z,16.00
2018-10-21T05:38:38.284Z,16.00
2018-10-21T05:39:38.226Z,20.00
2018-10-21T05:40:38.333Z,28.00
2018-10-21T05:41:41.022Z,36.00
2018-10-21T05:42:39.321Z,40.00
2018-10-21T05:43:38.154Z,44.00
2018-10-21T05:44:39.158Z,44.00
2018-10-21T05:45:38.160Z,48.00
2018-10-21T05:46:38.105Z,44.00
2018-10-21T05:47:38.105Z,44.00
2018-10-21T05:48:38.122Z,44.00
2018-10-21T05:49:39.112Z,44.00
2018-10-21T05:50:39.106Z,48.00
2018-10-21T05:51:38.064Z,52.00
2018-10-21T05:52:38.045Z,44.00
2018-10-21T05:53:38.081Z,36.00
2018-10-21T05:54:39.965Z,36.00
2018-10-21T05:57:00.245Z,68.00
2018-10-21T05:57:51.761Z,76.00
2018-10-21T05:58:51.429Z,100.00
2018-10-21T05:59:51.525Z,124.00
2018-10-21T06:00:52.007Z,136.00
2018-10-21T06:01:51.366Z,140.00
2018-10-21T06:02:52.539Z,148.00
2018-10-21T06:03:51.392Z,156.00
2018-10-21T06:04:51.269Z,196.00
2018-10-21T06:06:01.331Z,216.00
2018-10-21T06:06:51.507Z,252.00
2018-10-21T06:07:51.421Z,228.00
2018-10-21T06:08:51.328Z,224.00
2018-10-21T06:09:51.375Z,232.00
2018-10-21T06:10:51.256Z,248.00
2018-10-21T06:11:51.245Z,264.00
2018-10-21T06:12:51.205Z,292.00
2018-10-21T06:13:51.154Z,288.00
2018-10-21T06:14:51.177Z,260.00
2018-10-21T06:15:51.254Z,248.00
2018-10-21T06:16:51.143Z,236.00
2018-10-21T06:17:51.220Z,216.00
2018-10-21T06:18:51.086Z,216.00
2018-10-21T06:19:51.091Z,216.00
2018-10-21T06:20:51.052Z,228.00
2018-10-21T06:21:51.077Z,256.00
2018-10-21T06:22:51.068Z,300.00
2018-10-21T06:23:53.143Z,332.00
2018-10-21T06:24:52.056Z,348.00
2018-10-21T06:25:50.977Z,352.00
2018-10-21T06:26:51.031Z,320.00
2018-10-21T06:27:51.980Z,316.00
2018-10-21T06:28:50.977Z,320.00
2018-10-21T06:29:51.027Z,324.00
2018-10-21T06:30:51.029Z,304.00
2018-10-21T06:31:50.957Z,272.00
2018-10-21T06:32:52.060Z,264.00
2018-10-21T06:33:50.909Z,252.00
2018-10-21T06:34:50.916Z,244.00
2018-10-21T06:35:50.890Z,232.00
2018-10-21T06:36:50.979Z,240.00
2018-10-21T06:37:50.862Z,252.00
2018-10-21T06:38:50.922Z,252.00
2018-10-21T06:39:50.860Z,248.00
2018-10-21T06:41:16.554Z,232.00
2018-10-21T06:41:50.831Z,204.00
2018-10-21T06:42:50.809Z,188.00
2018-10-21T06:43:50.836Z,200.00
2018-10-21T06:44:50.761Z,224.00
2018-10-21T06:45:50.775Z,244.00
2018-10-21T06:46:50.753Z,264.00
2018-10-21T06:47:50.768Z,272.00
2018-10-21T06:48:50.709Z,284.00
2018-10-21T06:49:51.076Z,308.00
2018-10-21T06:50:50.768Z,324.00
2018-10-21T06:51:51.506Z,300.00
2018-10-21T06:52:50.731Z,280.00
2018-10-21T06:53:50.668Z,264.00
2018-10-21T06:54:50.666Z,272.00
2018-10-21T06:55:50.683Z,292.00
2018-10-21T06:56:50.899Z,332.00
2018-10-21T06:57:50.867Z,344.00
2018-10-21T06:58:50.692Z,360.00
2018-10-21T06:59:50.636Z,424.00
2018-10-21T07:00:50.655Z,468.00
2018-10-21T07:01:50.572Z,520.00
2018-10-21T07:02:50.600Z,604.00
2018-10-21T07:03:51.542Z,588.00
2018-10-21T07:04:50.642Z,544.00
2018-10-21T07:05:50.581Z,516.00
2018-10-21T07:06:51.496Z,504.00
2018-10-21T07:07:50.512Z,512.00
2018-10-21T07:08:50.561Z,516.00
2018-10-21T07:09:50.539Z,540.00
2018-10-21T07:11:22.545Z,508.00
2018-10-21T07:11:50.493Z,500.00
2018-10-21T07:12:50.461Z,512.00
2018-10-21T07:13:51.556Z,548.00
2018-10-21T07:14:50.585Z,552.00
2018-10-21T07:15:59.648Z,524.00
2018-10-21T07:17:05.690Z,524.00
2018-10-21T07:17:51.213Z,604.00
2018-10-21T07:18:50.534Z,604.00
2018-10-21T07:19:51.339Z,604.00
2018-10-21T07:20:51.721Z,608.00
2018-10-21T07:21:50.388Z,564.00
2018-10-21T07:22:50.357Z,572.00
2018-10-21T07:23:50.340Z,548.00
2018-10-21T07:24:50.360Z,564.00
2018-10-21T07:26:01.101Z,664.00
2018-10-21T07:26:50.343Z,812.00
2018-10-21T07:27:50.329Z,800.00
2018-10-21T07:28:50.293Z,812.00
2018-10-21T07:29:50.269Z,876.00
2018-10-21T07:30:50.294Z,936.00
2018-10-21T07:31:51.055Z,908.00
2018-10-21T07:32:50.269Z,816.00
2018-10-21T07:33:50.278Z,792.00
2018-10-21T07:34:50.271Z,804.00
2018-10-21T07:35:57.090Z,828.00
2018-10-21T07:36:53.100Z,892.00
2018-10-21T07:37:50.671Z,904.00
2018-10-21T07:38:50.177Z,868.00
2018-10-21T07:39:50.189Z,804.00
2018-10-21T07:42:30.784Z,736.00
2018-10-21T07:43:01.758Z,736.00
2018-10-21T07:44:01.490Z,760.00
2018-10-21T07:45:01.403Z,780.00
2018-10-21T07:46:03.127Z,760.00
2018-10-21T07:47:01.359Z,712.00
2018-10-21T07:48:01.686Z,680.00
2018-10-21T07:49:01.412Z,632.00
2018-10-21T07:50:01.367Z,592.00
2018-10-21T07:51:01.370Z,576.00
2018-10-21T07:52:01.362Z,584.00
2018-10-21T07:53:01.357Z,592.00
2018-10-21T07:54:01.320Z,616.00
2018-10-21T07:55:01.304Z,640.00
2018-10-21T07:56:01.344Z,660.00
2018-10-21T07:57:01.273Z,664.00
2018-10-21T07:58:01.252Z,644.00
2018-10-21T07:59:03.149Z,596.00
2018-10-21T08:00:01.280Z,568.00
2018-10-21T08:01:01.298Z,568.00
2018-10-21T08:02:01.171Z,616.00
2018-10-21T08:03:01.258Z,716.00
2018-10-21T08:04:01.168Z,856.00
2018-10-21T08:05:01.162Z,936.00
2018-10-21T08:06:01.139Z,952.00
2018-10-21T08:07:01.126Z,948.00
2018-10-21T08:08:01.154Z,932.00
2018-10-21T08:09:01.108Z,896.00
2018-10-21T08:10:01.122Z,920.00
2018-10-21T08:11:01.107Z,988.00
2018-10-21T08:12:01.107Z,1032.00
2018-10-21T08:13:01.050Z,1128.00
2018-10-21T08:14:01.031Z,1216.00
2018-10-21T08:15:01.100Z,1216.00
2018-10-21T08:16:01.044Z,1200.00
2018-10-21T08:17:01.028Z,1220.00
2018-10-21T08:18:01.003Z,1296.00
2018-10-21T08:19:01.005Z,1464.00
2018-10-21T08:20:02.000Z,1640.00
2018-10-21T08:21:01.010Z,1664.00
2018-10-21T08:22:00.997Z,1608.00
2018-10-21T08:23:02.594Z,1600.00
2018-10-21T08:29:24.983Z,1624.00
2018-10-21T08:30:22.875Z,1640.00
2018-10-21T08:31:23.178Z,1600.00
2018-10-21T08:32:22.300Z,1532.00
2018-10-21T08:33:22.160Z,1516.00
2018-10-21T08:34:22.169Z,1520.00
2018-10-21T08:35:22.105Z,1692.00
2018-10-21T08:36:22.170Z,1848.00
2018-10-21T08:37:22.141Z,1940.00
2018-10-21T08:38:22.113Z,1808.00
2018-10-21T08:39:22.074Z,1776.00
2018-10-21T08:40:23.100Z,1728.00
2018-10-21T08:41:43.105Z,1684.00
2018-10-21T08:42:22.101Z,1728.00
2018-10-21T08:43:22.071Z,1752.00
2018-10-21T08:44:23.070Z,1720.00
2018-10-21T08:45:23.006Z,1664.00
2018-10-21T08:46:22.122Z,1684.00
2018-10-21T08:47:23.126Z,1668.00
2018-10-21T08:48:22.021Z,1648.00
2018-10-21T08:49:22.100Z,1572.00
2018-10-21T08:50:22.996Z,1500.00
2018-10-21T08:51:22.927Z,1464.00
2018-10-21T08:52:21.967Z,1412.00
2018-10-21T08:53:21.962Z,1424.00
2018-10-21T08:54:21.911Z,1452.00
2018-10-21T08:55:21.898Z,1484.00
2018-10-21T08:56:42.967Z,1524.00
2018-10-21T08:57:21.901Z,1596.00
2018-10-21T08:58:21.902Z,1664.00
2018-10-21T08:59:23.107Z,1724.00
2018-10-21T09:00:21.837Z,1740.00
2018-10-21T09:01:21.869Z,1716.00
2018-10-21T09:02:21.869Z,1680.00
2018-10-21T09:03:21.902Z,1680.00
2018-10-21T09:04:22.592Z,1736.00
2018-10-21T09:05:21.791Z,1784.00
2018-10-21T09:06:21.821Z,1840.00
2018-10-21T09:07:22.071Z,1900.00
2018-10-21T09:08:21.722Z,1872.00
2018-10-21T09:09:21.751Z,1852.00
2018-10-21T09:10:21.880Z,1836.00
2018-10-21T09:11:21.697Z,1868.00
2018-10-21T09:12:22.560Z,1912.00
2018-10-21T09:13:21.684Z,1916.00
2018-10-21T09:14:21.706Z,1924.00
2018-10-21T09:15:21.706Z,1940.00
2018-10-21T09:16:22.808Z,1952.00
2018-10-21T09:17:21.654Z,1952.00
2018-10-21T09:18:21.638Z,1956.00
2018-10-21T09:19:21.635Z,1996.00
2018-10-21T09:20:21.651Z,2020.00
2018-10-21T09:21:22.092Z,2016.00
2018-10-21T09:22:21.620Z,2044.00
2018-10-21T09:23:21.558Z,2124.00
2018-10-21T09:24:21.585Z,2184.00
2018-10-21T09:25:21.578Z,2184.00
2018-10-21T09:26:21.586Z,2096.00
2018-10-21T09:27:21.518Z,2004.00
2018-10-21T09:28:21.536Z,1944.00
2018-10-21T09:29:21.495Z,1904.00
2018-10-21T09:30:21.522Z,1904.00
2018-10-21T09:31:21.499Z,1936.00
2018-10-21T09:32:21.536Z,1940.00
2018-10-21T09:33:21.456Z,1852.00
2018-10-21T09:34:21.438Z,1796.00
2018-10-21T09:35:21.531Z,1768.00
2018-10-21T09:36:21.423Z,1796.00
2018-10-21T09:37:21.562Z,1628.00
2018-10-21T09:38:21.432Z,1524.00
2018-10-21T09:39:22.064Z,1492.00
2018-10-21T09:40:21.461Z,1488.00
2018-10-21T09:41:21.469Z,1504.00
2018-10-21T09:42:21.361Z,1584.00
2018-10-21T09:43:21.340Z,1672.00
2018-10-21T09:44:21.364Z,1688.00
2018-10-21T09:45:21.368Z,1636.00
2018-10-21T09:46:21.314Z,1520.00
2018-10-21T09:47:21.332Z,1420.00
2018-10-21T09:48:21.280Z,1380.00
2018-10-21T09:49:21.286Z,1352.00
2018-10-21T09:50:21.277Z,1268.00
2018-10-21T09:51:21.288Z,1200.00
2018-10-21T09:52:21.266Z,1220.00
2018-10-21T09:53:21.260Z,1300.00
2018-10-21T09:54:21.232Z,1436.00
2018-10-21T09:55:21.222Z,1608.00
2018-10-21T09:56:28.674Z,1744.00
2018-10-21T09:57:21.235Z,1784.00
2018-10-21T09:58:21.277Z,1796.00
2018-10-21T09:59:21.208Z,1792.00
2018-10-21T10:00:21.157Z,1780.00
2018-10-21T10:01:21.153Z,1884.00
2018-10-21T10:02:21.213Z,1820.00
2018-10-21T10:03:22.123Z,1816.00
2018-10-21T10:04:21.195Z,1740.00
2018-10-21T10:05:21.219Z,1732.00
2018-10-21T10:06:21.125Z,1760.00
2018-10-21T10:07:21.077Z,1796.00
2018-10-21T10:08:22.046Z,1816.00
2018-10-21T10:09:21.146Z,1808.00
2018-10-21T10:10:21.043Z,1808.00
2018-10-21T10:11:21.042Z,1992.00
2018-10-21T10:12:21.068Z,1912.00
2018-10-21T10:13:21.032Z,1884.00
2018-10-21T10:14:21.580Z,1836.00
2018-10-21T10:15:21.007Z,1880.00
2018-10-21T10:16:21.016Z,1888.00
2018-10-21T10:17:20.963Z,1872.00
2018-10-21T10:18:20.998Z,1848.00
2018-10-21T10:19:20.952Z,1816.00
2018-10-21T10:20:20.941Z,1824.00
2018-10-21T10:21:20.927Z,1880.00
2018-10-21T10:22:20.927Z,1964.00
2018-10-21T10:23:21.025Z,2040.00
2018-10-21T10:24:20.946Z,2192.00
2018-10-21T10:25:20.877Z,2284.00
2018-10-21T10:26:20.899Z,2276.00
2018-10-21T10:27:20.858Z,2464.00
2018-10-21T10:28:20.847Z,2460.00
2018-10-21T10:29:20.854Z,2444.00
2018-10-21T10:30:20.923Z,2436.00
2018-10-21T10:31:20.815Z,2396.00
2018-10-21T10:32:20.819Z,2340.00
2018-10-21T10:33:20.776Z,2280.00
2018-10-21T10:34:20.769Z,2152.00
2018-10-21T10:35:20.783Z,2068.00
2018-10-21T10:36:20.849Z,2008.00
2018-10-21T10:37:20.807Z,1960.00
2018-10-21T10:38:20.734Z,1952.00
2018-10-21T10:39:20.736Z,1928.00
2018-10-21T10:40:20.898Z,1904.00
2018-10-21T10:41:20.708Z,1912.00
2018-10-21T10:42:20.800Z,1924.00
2018-10-21T10:43:20.669Z,1956.00
2018-10-21T10:44:20.662Z,1972.00
2018-10-21T10:45:21.685Z,1964.00
2018-10-21T10:46:20.687Z,1964.00
2018-10-21T10:47:20.617Z,1948.00
2018-10-21T10:48:20.610Z,1960.00
2018-10-21T10:49:20.609Z,1976.00
2018-10-21T10:50:20.597Z,1992.00
2018-10-21T10:51:20.586Z,2028.00
2018-10-21T10:52:20.561Z,2072.00
2018-10-21T10:53:20.550Z,2100.00
2018-10-21T10:54:20.621Z,2124.00
2018-10-21T10:55:20.591Z,2120.00
2018-10-21T10:56:20.528Z,2176.00
2018-10-21T10:57:20.539Z,2248.00
2018-10-21T10:58:20.500Z,2284.00
2018-10-21T10:59:20.483Z,2300.00
2018-10-21T11:00:20.524Z,2296.00
2018-10-21T11:01:20.484Z,2292.00
2018-10-21T11:02:20.459Z,2240.00
2018-10-21T11:03:20.433Z,2204.00
2018-10-21T11:04:20.469Z,2180.00
2018-10-21T11:05:20.434Z,2180.00
2018-10-21T11:06:20.452Z,2144.00
2018-10-21T11:07:20.393Z,2032.00
2018-10-21T11:08:20.392Z,2260.00
2018-10-21T11:09:20.381Z,2436.00
2018-10-21T11:10:20.354Z,2456.00
2018-10-21T11:11:20.384Z,2468.00
2018-10-21T11:12:20.343Z,2484.00
2018-10-21T11:13:20.336Z,2472.00
2018-10-21T11:14:20.354Z,2424.00
2018-10-21T11:15:20.306Z,2184.00
2018-10-21T11:16:20.293Z,1776.00
2018-10-21T11:17:20.327Z,1676.00
2018-10-21T11:18:20.267Z,1624.00
2018-10-21T11:19:20.278Z,1560.00
2018-10-21T11:20:20.256Z,1540.00
2018-10-21T11:21:20.231Z,1540.00
2018-10-21T11:22:20.262Z,1544.00
2018-10-21T11:23:20.257Z,1560.00
2018-10-21T11:24:20.198Z,1580.00
2018-10-21T11:25:20.235Z,1608.00
2018-10-21T11:26:20.195Z,1636.00
2018-10-21T11:27:20.200Z,1656.00
2018-10-21T11:28:20.369Z,1668.00
2018-10-21T11:29:20.548Z,1684.00
2018-10-21T11:30:20.158Z,1704.00
2018-10-21T11:31:20.117Z,1700.00
2018-10-21T11:32:20.135Z,1696.00
2018-10-21T11:33:20.125Z,1716.00
2018-10-21T11:34:20.084Z,1748.00
2018-10-21T11:35:20.083Z,1760.00
2018-10-21T11:36:20.053Z,1772.00
2018-10-21T11:37:20.187Z,2184.00
2018-10-21T11:38:20.028Z,1976.00
2018-10-21T11:39:20.029Z,1804.00
2018-10-21T11:40:20.130Z,1828.00
2018-10-21T11:41:20.052Z,1860.00
2018-10-21T11:42:20.049Z,1864.00
2018-10-21T11:43:19.992Z,1848.00
2018-10-21T11:44:19.978Z,1824.00
2018-10-21T11:45:19.970Z,1804.00
2018-10-21T11:46:19.995Z,1804.00
2018-10-21T11:47:19.967Z,1824.00
2018-10-21T11:48:19.955Z,1844.00
2018-10-21T11:49:19.915Z,1860.00
2018-10-21T11:50:19.946Z,1888.00
2018-10-21T11:51:19.890Z,2040.00
2018-10-21T11:52:20.048Z,2596.00
2018-10-21T11:53:19.866Z,2516.00
2018-10-21T11:54:19.875Z,2940.00
2018-10-21T11:55:19.841Z,3008.00
2018-10-21T11:56:19.862Z,3076.00
2018-10-21T11:57:19.812Z,3124.00
2018-10-21T11:58:19.804Z,3044.00
2018-10-21T11:59:19.831Z,3144.00
2018-10-21T12:00:19.861Z,2964.00
2018-10-21T12:01:19.782Z,2724.00
2018-10-21T12:02:19.764Z,3016.00
2018-10-21T12:03:19.781Z,3108.00
2018-10-21T12:04:19.757Z,3032.00
2018-10-21T12:05:19.744Z,2964.00
2018-10-21T12:06:19.720Z,2916.00
2018-10-21T12:07:19.707Z,2832.00
2018-10-21T12:08:19.704Z,2752.00
2018-10-21T12:09:19.715Z,2640.00
2018-10-21T12:10:19.680Z,2536.00
2018-10-21T12:11:27.137Z,2480.00
2018-10-21T12:12:19.692Z,2480.00
2018-10-21T12:13:19.641Z,2500.00
2018-10-21T12:14:19.651Z,2516.00
2018-10-21T12:15:19.658Z,2528.00
2018-10-21T12:16:19.817Z,2524.00
2018-10-21T12:17:19.602Z,2512.00
2018-10-21T12:18:19.604Z,2520.00
2018-10-21T12:19:19.603Z,2548.00
2018-10-21T12:20:19.575Z,2560.00
2018-10-21T12:21:19.550Z,2576.00
2018-10-21T12:22:19.570Z,2608.00
2018-10-21T12:23:19.572Z,2616.00
2018-10-21T12:24:19.509Z,2600.00
2018-10-21T12:25:19.633Z,2588.00
2018-10-21T12:26:19.510Z,2608.00
2018-10-21T12:27:19.521Z,2632.00
2018-10-21T12:28:19.583Z,2644.00
2018-10-21T12:29:19.508Z,2652.00
2018-10-21T12:30:19.442Z,2668.00
2018-10-21T12:31:19.606Z,2676.00
2018-10-21T12:32:19.420Z,2700.00
2018-10-21T12:33:19.412Z,2716.00
2018-10-21T12:34:19.398Z,2728.00
2018-10-21T12:35:19.475Z,2728.00
2018-10-21T12:36:19.444Z,2764.00
2018-10-21T12:37:19.366Z,2788.00
2018-10-21T12:38:19.366Z,2796.00
2018-10-21T12:39:19.352Z,2832.00
2018-10-21T12:40:19.483Z,2860.00
2018-10-21T12:41:19.326Z,2860.00
2018-10-21T12:42:19.324Z,2828.00
2018-10-21T12:43:19.317Z,2816.00
2018-10-21T12:44:19.293Z,2840.00
2018-10-21T12:45:19.289Z,2872.00
2018-10-21T12:46:19.286Z,2880.00
2018-10-21T12:47:19.290Z,2896.00
2018-10-21T12:48:19.267Z,2892.00
2018-10-21T12:49:19.346Z,2880.00
2018-10-21T12:50:19.239Z,2856.00
2018-10-21T12:51:19.215Z,2856.00
2018-10-21T12:52:19.200Z,2860.00
2018-10-21T12:53:19.234Z,2876.00
2018-10-21T12:54:19.175Z,2884.00
2018-10-21T12:55:19.238Z,2860.00
2018-10-21T12:56:19.145Z,2836.00
2018-10-21T12:57:19.138Z,2812.00
2018-10-21T12:58:19.309Z,2808.00
2018-10-21T12:59:19.132Z,2804.00
2018-10-21T13:00:19.120Z,2780.00
2018-10-21T13:01:19.093Z,2760.00
2018-10-21T13:02:19.157Z,2744.00
2018-10-21T13:03:19.095Z,2720.00
2018-10-21T13:04:19.168Z,2708.00
2018-10-21T13:05:19.082Z,2696.00
2018-10-21T13:06:19.039Z,2724.00
2018-10-21T13:07:19.161Z,2744.00
2018-10-21T13:08:19.023Z,2072.00
2018-10-21T13:09:19.044Z,2696.00
2018-10-21T13:10:19.015Z,1816.00
2018-10-21T13:11:18.988Z,2568.00
2018-10-21T13:12:18.984Z,2708.00
2018-10-21T13:13:18.994Z,2712.00
2018-10-21T13:14:18.978Z,2704.00
2018-10-21T13:15:18.944Z,2696.00
2018-10-21T13:16:18.945Z,2700.00
2018-10-21T13:17:18.916Z,2728.00
2018-10-21T13:18:18.932Z,2740.00
2018-10-21T13:19:18.935Z,2752.00
2018-10-21T13:20:18.903Z,2760.00
2018-10-21T13:21:18.890Z,2776.00
2018-10-21T13:22:18.925Z,2764.00
2018-10-21T13:23:18.853Z,2756.00
2018-10-21T13:24:18.856Z,2756.00
2018-10-21T13:25:18.879Z,2752.00
2018-10-21T13:26:18.818Z,2744.00
2018-10-21T13:27:18.821Z,2736.00
2018-10-21T13:28:18.884Z,2736.00
2018-10-21T13:29:19.077Z,2736.00
2018-10-21T13:30:18.769Z,2724.00
2018-10-21T13:31:18.866Z,2728.00
2018-10-21T13:32:18.793Z,2740.00
2018-10-21T13:33:18.764Z,2756.00
2018-10-21T13:34:18.837Z,2776.00
2018-10-21T13:35:18.739Z,2776.00
2018-10-21T13:36:18.707Z,2740.00
2018-10-21T13:37:18.699Z,1736.00
2018-10-21T13:38:18.706Z,2212.00
2018-10-21T13:39:18.688Z,2332.00
2018-10-21T13:40:18.804Z,2604.00
2018-10-21T13:41:18.673Z,2680.00
2018-10-21T13:42:18.641Z,2712.00
2018-10-21T13:43:18.691Z,2716.00
2018-10-21T13:44:18.653Z,2708.00
2018-10-21T13:45:18.627Z,2700.00
2018-10-21T13:46:18.647Z,2712.00
2018-10-21T13:47:18.585Z,2728.00
2018-10-21T13:48:18.580Z,2732.00
2018-10-21T13:49:18.567Z,2736.00
2018-10-21T13:50:18.554Z,2748.00
2018-10-21T13:51:18.570Z,2772.00
2018-10-21T13:52:18.658Z,2792.00
2018-10-21T13:53:18.560Z,2800.00
2018-10-21T13:54:18.509Z,2800.00
2018-10-21T13:55:18.531Z,2796.00
2018-10-21T13:56:18.502Z,2796.00
2018-10-21T13:57:18.471Z,2796.00
2018-10-21T13:58:18.477Z,2800.00
2018-10-21T13:59:18.520Z,2796.00
2018-10-21T14:00:18.469Z,2796.00
2018-10-21T14:01:18.475Z,2812.00
2018-10-21T14:02:18.438Z,2828.00
2018-10-21T14:03:18.402Z,2840.00
2018-10-21T14:04:18.493Z,2864.00
2018-10-21T14:05:18.390Z,2876.00
2018-10-21T14:06:18.376Z,2872.00
2018-10-21T14:07:18.410Z,2872.00
2018-10-21T14:08:18.396Z,2892.00
2018-10-21T14:09:18.335Z,2900.00
2018-10-21T14:10:18.516Z,2916.00
2018-10-21T14:11:18.329Z,2920.00
2018-10-21T14:12:18.297Z,2908.00
2018-10-21T14:13:18.367Z,2924.00
2018-10-21T14:14:18.311Z,2904.00
2018-10-21T14:15:18.294Z,2896.00
2018-10-21T14:16:18.393Z,2916.00
2018-10-21T14:17:18.238Z,2920.00
2018-10-21T14:18:18.266Z,2932.00
2018-10-21T14:19:18.233Z,2944.00
2018-10-21T14:20:18.202Z,2936.00
2018-10-21T14:21:18.303Z,2924.00
2018-10-21T14:22:18.337Z,2912.00
2018-10-21T14:23:18.171Z,2900.00
2018-10-21T14:24:18.278Z,2900.00
2018-10-21T14:25:18.156Z,2908.00
2018-10-21T14:26:18.145Z,2900.00
2018-10-21T14:27:18.143Z,2896.00
2018-10-21T14:28:18.131Z,2904.00
2018-10-21T14:29:18.630Z,2912.00
2018-10-21T14:30:18.162Z,2904.00
2018-10-21T14:31:18.083Z,2920.00
2018-10-21T14:32:18.118Z,2924.00
2018-10-21T14:33:18.104Z,2916.00
2018-10-21T14:34:18.051Z,2904.00
2018-10-21T14:35:18.048Z,2892.00
2018-10-21T14:36:18.182Z,2880.00
2018-10-21T14:37:18.062Z,2872.00
2018-10-21T14:38:18.043Z,2864.00
2018-10-21T14:39:18.053Z,2856.00
2018-10-21T14:40:17.993Z,2848.00
2018-10-21T14:41:17.969Z,2832.00
2018-10-21T14:42:18.044Z,2820.00
2018-10-21T14:43:17.979Z,2804.00
2018-10-21T14:44:17.989Z,2792.00
2018-10-21T14:45:18.040Z,2784.00
2018-10-21T14:46:17.913Z,2780.00
2018-10-21T14:47:17.904Z,2772.00
2018-10-21T14:48:17.988Z,2760.00
2018-10-21T14:49:17.906Z,2764.00
2018-10-21T14:50:17.877Z,2736.00
2018-10-21T14:51:17.964Z,2720.00
2018-10-21T14:52:17.850Z,2712.00
2018-10-21T14:53:17.885Z,2704.00
2018-10-21T14:54:17.855Z,2696.00
2018-10-21T14:55:17.912Z,2680.00
2018-10-21T14:56:17.819Z,2664.00
2018-10-21T14:57:17.814Z,2644.00
2018-10-21T14:58:17.816Z,2628.00
2018-10-21T14:59:17.795Z,2620.00
2018-10-21T15:00:17.895Z,2608.00
2018-10-21T15:01:17.744Z,2592.00
2018-10-21T15:02:17.947Z,2564.00
2018-10-21T15:03:17.741Z,2524.00
2018-10-21T15:04:17.817Z,2480.00
2018-10-21T15:05:17.714Z,2440.00
2018-10-21T15:06:17.793Z,2388.00
2018-10-21T15:07:17.683Z,2344.00